RJTE(METAR)
06/25 08:00
METAR RJTE 242300Z 09008KT 9999 FEW020 BKN040 BKN230 20/18 Q1017 RMK
1CU020 5SC040 A3004=
戻る
トップページへ戻る
IMOC Co,.Ltd.